createdAt,value
2019-04-25T00:00:34.610Z,89.40
2019-04-25T00:03:05.034Z,89.50
2019-04-25T00:05:36.283Z,89.40
2019-04-25T00:08:07.536Z,89.60
2019-04-25T00:10:37.957Z,90.00
2019-04-25T00:13:11.728Z,90.00
2019-04-25T00:15:44.605Z,90.50
2019-04-25T00:18:14.341Z,90.20
2019-04-25T00:20:49.191Z,90.20
2019-04-25T00:23:19.576Z,90.30
2019-04-25T00:26:21.174Z,90.40
2019-04-25T00:28:52.408Z,90.60
2019-04-25T00:31:25.919Z,90.70
2019-04-25T00:33:55.776Z,90.70
2019-04-25T00:36:26.222Z,90.80
2019-04-25T00:38:56.586Z,90.90
2019-04-25T00:41:27.036Z,90.90
2019-04-25T00:43:57.403Z,90.90
2019-04-25T00:46:27.795Z,90.90
2019-04-25T00:48:59.338Z,91.10
2019-04-25T00:51:29.739Z,90.90
2019-04-25T00:54:02.074Z,91.00
2019-04-25T00:56:32.247Z,91.20
2019-04-25T00:59:14.026Z,91.20
2019-04-25T01:02:02.321Z,91.30
2019-04-25T01:04:34.052Z,91.40
2019-04-25T01:07:04.523Z,91.50
2019-04-25T01:09:35.211Z,91.60
2019-04-25T01:12:06.642Z,91.70
2019-04-25T01:14:36.995Z,91.70
2019-04-25T01:17:07.430Z,91.70
2019-04-25T01:19:37.844Z,91.70
2019-04-25T01:22:08.671Z,91.70
2019-04-25T01:24:39.027Z,91.80
2019-04-25T01:27:09.527Z,91.70
2019-04-25T01:29:40.233Z,91.70
2019-04-25T01:32:13.880Z,91.70
2019-04-25T01:34:55.541Z,92.00
2019-04-25T01:37:41.447Z,92.10
2019-04-25T01:40:30.704Z,92.10
2019-04-25T01:43:14.207Z,92.40
2019-04-25T01:45:45.891Z,92.60
2019-04-25T01:48:17.388Z,92.70
2019-04-25T01:50:49.316Z,92.90
2019-04-25T01:53:20.514Z,93.20
2019-04-25T01:55:55.952Z,93.30
2019-04-25T01:58:23.613Z,93.50
2019-04-25T02:00:55.026Z,93.90
2019-04-25T02:03:27.269Z,93.90
2019-04-25T02:05:57.771Z,94.20
2019-04-25T02:08:28.205Z,94.40
2019-04-25T02:11:17.576Z,94.60
2019-04-25T02:13:48.347Z,94.70
2019-04-25T02:16:18.722Z,95.10
2019-04-25T02:18:49.094Z,95.20
2019-04-25T02:21:19.493Z,95.40
2019-04-25T02:23:49.875Z,95.50
2019-04-25T02:26:20.236Z,95.50
2019-04-25T02:28:50.645Z,95.90
2019-04-25T02:31:21.290Z,96.20
2019-04-25T02:33:51.702Z,96.50
2019-04-25T02:36:24.537Z,96.50
2019-04-25T02:38:58.599Z,96.70
2019-04-25T02:41:26.374Z,97.10
2019-04-25T02:44:01.406Z,97.30
2019-04-25T02:46:56.180Z,97.30
2019-04-25T02:49:51.398Z,97.80
2019-04-25T02:52:34.555Z,97.90
2019-04-25T02:55:10.501Z,98.00
2019-04-25T02:57:37.575Z,98.30
2019-04-25T03:00:10.083Z,98.60
2019-04-25T03:02:40.561Z,99.00
2019-04-25T03:05:11.191Z,99.20
2019-04-25T03:07:41.702Z,99.20
2019-04-25T03:10:14.849Z,99.80
2019-04-25T03:12:44.907Z,99.70
2019-04-25T03:15:15.339Z,99.90
2019-04-25T03:17:46.642Z,99.90
2019-04-25T03:20:27.950Z,99.90
2019-04-25T03:23:06.943Z,99.90
2019-04-25T03:25:36.531Z,99.90
2019-04-25T03:28:07.198Z,99.90
2019-04-25T03:30:37.968Z,99.90
2019-04-25T03:33:13.571Z,99.90
2019-04-25T03:35:40.365Z,99.90
2019-04-25T03:38:10.743Z,99.90
2019-04-25T03:40:41.169Z,99.90
2019-04-25T03:43:11.587Z,99.90
2019-04-25T03:45:43.224Z,99.90
2019-04-25T03:48:14.495Z,99.90
2019-04-25T03:50:44.929Z,99.90
2019-04-25T03:53:15.295Z,99.90
2019-04-25T03:55:45.715Z,99.90
2019-04-25T03:58:16.087Z,99.90
2019-04-25T04:00:46.753Z,99.90
2019-04-25T04:03:17.111Z,99.90
2019-04-25T04:05:47.551Z,99.90
2019-04-25T04:08:18.349Z,99.90
2019-04-25T04:10:49.179Z,99.90
2019-04-25T04:13:19.558Z,99.90
2019-04-25T04:15:49.978Z,99.90
2019-04-25T04:18:39.327Z,99.90
2019-04-25T04:21:17.762Z,99.90
2019-04-25T04:24:08.540Z,99.90
2019-04-25T04:26:39.015Z,99.90
2019-04-25T04:29:10.035Z,99.90
2019-04-25T04:31:40.644Z,99.90
2019-04-25T04:34:10.968Z,99.90
2019-04-25T04:36:41.347Z,99.90
2019-04-25T04:39:13.865Z,99.90
2019-04-25T04:41:45.526Z,99.90
2019-04-25T04:44:16.490Z,99.90
2019-04-25T04:46:46.966Z,99.90
2019-04-25T04:49:17.345Z,99.90
2019-04-25T04:51:47.891Z,99.90
2019-04-25T04:54:18.319Z,99.90
2019-04-25T04:56:48.935Z,99.90
2019-04-25T04:59:19.313Z,99.90
2019-04-25T05:02:18.772Z,99.90
2019-04-25T05:05:08.420Z,99.90
2019-04-25T05:07:43.834Z,99.90
2019-04-25T05:10:16.501Z,99.90
2019-04-25T05:12:46.131Z,99.90
2019-04-25T05:15:17.915Z,99.60
2019-04-25T05:17:49.192Z,98.70
2019-04-25T05:20:20.138Z,97.90
2019-04-25T05:22:50.671Z,97.00
2019-04-25T05:25:21.126Z,97.00
2019-04-25T05:28:00.690Z,96.80
2019-04-25T05:30:29.647Z,96.00
2019-04-25T05:33:00.439Z,95.10
2019-04-25T05:35:30.867Z,94.70
2019-04-25T05:38:01.270Z,93.90
2019-04-25T05:40:31.722Z,93.40
2019-04-25T05:43:09.554Z,93.50
2019-04-25T05:45:39.931Z,93.90
2019-04-25T05:48:10.301Z,94.40
2019-04-25T05:50:40.816Z,94.70
2019-04-25T05:53:11.423Z,94.40
2019-04-25T05:55:44.047Z,94.20
2019-04-25T05:58:14.292Z,93.60
2019-04-25T06:00:44.690Z,93.70
2019-04-25T06:03:15.067Z,93.50
2019-04-25T06:05:45.492Z,92.40
2019-04-25T06:08:17.606Z,91.60
2019-04-25T06:11:09.719Z,91.10
2019-04-25T06:13:44.856Z,90.20
2019-04-25T06:16:25.594Z,90.00
2019-04-25T06:19:14.256Z,89.40
2019-04-25T06:21:43.524Z,89.70
2019-04-25T06:24:32.786Z,90.40
2019-04-25T06:27:25.948Z,90.80
2019-04-25T06:30:01.303Z,91.40
2019-04-25T06:32:34.141Z,91.70
2019-04-25T06:35:05.098Z,92.00
2019-04-25T06:37:35.483Z,91.90
2019-04-25T06:40:07.490Z,91.30
2019-04-25T06:42:39.433Z,90.40
2019-04-25T06:45:36.540Z,89.10
2019-04-25T06:48:29.057Z,87.60
2019-04-25T06:51:00.592Z,87.60
2019-04-25T06:53:31.037Z,87.90
2019-04-25T06:56:01.474Z,87.00
2019-04-25T06:58:32.314Z,86.20
2019-04-25T07:01:04.097Z,85.70
2019-04-25T07:03:35.704Z,84.90
2019-04-25T07:06:07.662Z,83.40
2019-04-25T07:08:38.161Z,82.60
2019-04-25T07:11:08.706Z,82.60
2019-04-25T07:13:39.075Z,82.50
2019-04-25T07:16:09.478Z,82.20
2019-04-25T07:18:40.729Z,82.60
2019-04-25T07:21:11.088Z,82.80
2019-04-25T07:23:43.226Z,82.20
2019-04-25T07:26:39.880Z,81.30
2019-04-25T07:29:43.215Z,80.30
2019-04-25T07:32:38.879Z,78.70
2019-04-25T07:35:09.866Z,79.40
2019-04-25T07:37:41.733Z,78.60
2019-04-25T07:40:13.908Z,76.80
2019-04-25T07:42:44.853Z,76.00
2019-04-25T07:45:16.897Z,76.30
2019-04-25T07:47:47.698Z,75.90
2019-04-25T07:50:18.930Z,74.90
2019-04-25T07:52:50.277Z,74.80
2019-04-25T07:55:20.727Z,74.00
2019-04-25T07:57:51.408Z,74.00
2019-04-25T08:00:24.682Z,72.20
2019-04-25T08:02:55.151Z,71.20
2019-04-25T08:05:25.565Z,70.30
2019-04-25T08:07:56.211Z,70.80
2019-04-25T08:10:28.706Z,71.20
2019-04-25T08:13:00.234Z,71.60
2019-04-25T08:15:49.836Z,71.30
2019-04-25T08:18:20.463Z,70.50
2019-04-25T08:20:51.140Z,69.00
2019-04-25T08:23:23.750Z,68.50
2019-04-25T08:25:54.465Z,68.00
2019-04-25T08:28:24.875Z,65.70
2019-04-25T08:30:55.258Z,65.50
2019-04-25T08:33:25.697Z,64.50
2019-04-25T08:36:05.794Z,64.40
2019-04-25T08:38:28.231Z,64.40
2019-04-25T08:40:58.983Z,64.20
2019-04-25T08:43:30.004Z,64.40
2019-04-25T08:46:01.372Z,64.20
2019-04-25T08:48:34.924Z,63.40
2019-04-25T08:51:17.142Z,63.70
2019-04-25T08:53:54.744Z,62.90
2019-04-25T08:56:29.066Z,62.10
2019-04-25T08:59:18.590Z,61.00
2019-04-25T09:01:59.626Z,60.80
2019-04-25T09:04:52.059Z,59.90
2019-04-25T09:07:23.570Z,57.80
2019-04-25T09:09:54.133Z,59.30
2019-04-25T09:12:25.651Z,59.20
2019-04-25T09:14:56.036Z,59.70
2019-04-25T09:17:26.402Z,59.50
2019-04-25T09:19:56.785Z,60.30
2019-04-25T09:22:27.121Z,60.40
2019-04-25T09:24:57.518Z,60.60
2019-04-25T09:27:27.885Z,60.30
2019-04-25T09:29:58.313Z,59.90
2019-04-25T09:32:28.712Z,58.50
2019-04-25T09:34:59.132Z,56.30
2019-04-25T09:37:30.392Z,55.50
2019-04-25T09:40:08.260Z,54.70
2019-04-25T09:42:39.427Z,54.60
2019-04-25T09:45:29.218Z,55.80
2019-04-25T09:48:04.750Z,56.70
2019-04-25T09:50:39.738Z,57.20
2019-04-25T09:53:21.039Z,56.50
2019-04-25T09:55:49.458Z,54.30
2019-04-25T09:58:29.026Z,53.80
2019-04-25T10:01:05.831Z,54.10
2019-04-25T10:03:36.682Z,53.10
2019-04-25T10:06:08.395Z,52.30
2019-04-25T10:08:38.836Z,52.70
2019-04-25T10:11:09.229Z,51.40
2019-04-25T10:13:40.552Z,51.90
2019-04-25T10:16:13.058Z,52.70
2019-04-25T10:18:44.567Z,52.20
2019-04-25T10:21:15.392Z,52.30
2019-04-25T10:23:46.772Z,52.20
2019-04-25T10:26:20.072Z,52.20
2019-04-25T10:28:50.488Z,51.10
2019-04-25T10:31:20.826Z,51.10
2019-04-25T10:33:51.410Z,50.70
2019-04-25T10:36:23.001Z,50.40
2019-04-25T10:39:04.250Z,50.90
2019-04-25T10:41:25.880Z,51.60
2019-04-25T10:43:56.352Z,51.00
2019-04-25T10:46:26.707Z,50.70
2019-04-25T10:48:57.086Z,50.10
2019-04-25T10:51:27.450Z,51.20
2019-04-25T10:53:57.850Z,50.90
2019-04-25T10:56:28.256Z,51.30
2019-04-25T10:58:58.686Z,51.50
2019-04-25T11:01:29.102Z,52.00
2019-04-25T11:04:10.511Z,52.20
2019-04-25T11:06:41.812Z,50.90
2019-04-25T11:09:20.092Z,51.30
2019-04-25T11:11:50.508Z,51.80
2019-04-25T11:14:20.839Z,50.90
2019-04-25T11:16:51.663Z,50.60
2019-04-25T11:19:23.766Z,50.00
2019-04-25T11:21:54.024Z,48.80
2019-04-25T11:24:24.490Z,48.40
2019-04-25T11:26:55.384Z,47.60
2019-04-25T11:29:26.652Z,46.60
2019-04-25T11:31:57.174Z,46.50
2019-04-25T11:34:27.951Z,47.70
2019-04-25T11:36:58.614Z,48.40
2019-04-25T11:39:54.979Z,49.10
2019-04-25T11:42:26.660Z,49.30
2019-04-25T11:44:57.024Z,49.60
2019-04-25T11:47:27.416Z,49.90
2019-04-25T11:49:57.882Z,49.60
2019-04-25T11:52:30.343Z,49.00
2019-04-25T11:55:00.316Z,48.50
2019-04-25T11:57:30.640Z,48.50
2019-04-25T12:00:01.027Z,48.00
2019-04-25T12:02:34.370Z,47.50
2019-04-25T12:05:05.946Z,47.40
2019-04-25T12:07:36.474Z,47.30
2019-04-25T12:10:08.614Z,46.80
2019-04-25T12:12:39.092Z,47.40
2019-04-25T12:15:09.920Z,47.10
2019-04-25T12:17:40.302Z,46.80
2019-04-25T12:20:11.164Z,46.90
2019-04-25T12:22:41.657Z,48.30
2019-04-25T12:25:13.438Z,48.50
2019-04-25T12:27:48.659Z,48.60
2019-04-25T12:30:18.944Z,48.50
2019-04-25T12:32:49.969Z,47.90
2019-04-25T12:35:20.954Z,48.20
2019-04-25T12:37:52.181Z,47.90
2019-04-25T12:40:24.218Z,47.50
2019-04-25T12:42:54.828Z,48.10
2019-04-25T12:45:34.371Z,48.70
2019-04-25T12:48:07.002Z,48.40
2019-04-25T12:50:37.443Z,48.30
2019-04-25T12:53:07.900Z,48.20
2019-04-25T12:55:38.352Z,49.20
2019-04-25T12:58:09.128Z,50.80
2019-04-25T13:00:47.825Z,51.20
2019-04-25T13:03:14.173Z,52.30
2019-04-25T13:05:44.321Z,52.90
2019-04-25T13:08:15.085Z,53.50
2019-04-25T13:10:45.548Z,54.10
2019-04-25T13:13:16.630Z,54.90
2019-04-25T13:15:48.232Z,55.70
2019-04-25T13:18:18.580Z,56.40
2019-04-25T13:20:49.010Z,56.30
2019-04-25T13:23:19.534Z,56.40
2019-04-25T13:25:50.515Z,56.80
2019-04-25T13:28:28.769Z,57.20
2019-04-25T13:31:21.116Z,57.60
2019-04-25T13:34:04.719Z,57.90
2019-04-25T13:36:36.434Z,58.10
2019-04-25T13:39:15.082Z,58.20
2019-04-25T13:41:46.494Z,58.20
2019-04-25T13:44:17.090Z,58.70
2019-04-25T13:46:47.928Z,58.00
2019-04-25T13:49:18.330Z,58.00
2019-04-25T13:51:50.453Z,58.00
2019-04-25T13:54:20.922Z,57.70
2019-04-25T13:56:53.379Z,57.40
2019-04-25T13:59:24.037Z,56.90
2019-04-25T14:01:57.559Z,56.80
2019-04-25T14:04:29.470Z,56.40
2019-04-25T14:07:02.424Z,56.00
2019-04-25T14:09:34.667Z,55.40
2019-04-25T14:12:06.751Z,55.30
2019-04-25T14:14:37.299Z,54.80
2019-04-25T14:17:33.774Z,54.90
2019-04-25T14:20:25.229Z,55.10
2019-04-25T14:22:55.934Z,55.20
2019-04-25T14:25:27.622Z,55.00
2019-04-25T14:27:59.382Z,54.90
2019-04-25T14:30:32.578Z,54.80
2019-04-25T14:33:03.653Z,55.00
2019-04-25T14:35:34.489Z,55.00
2019-04-25T14:38:04.964Z,55.40
2019-04-25T14:40:35.526Z,56.10
2019-04-25T14:43:06.005Z,55.70
2019-04-25T14:45:44.405Z,55.80
2019-04-25T14:48:08.528Z,55.80
2019-04-25T14:50:38.872Z,55.50
2019-04-25T14:53:09.276Z,55.60
2019-04-25T14:55:51.406Z,55.40
2019-04-25T14:58:24.051Z,55.30
2019-04-25T15:00:54.462Z,55.60
2019-04-25T15:03:26.001Z,55.90
2019-04-25T15:05:56.586Z,55.80
2019-04-25T15:08:26.972Z,55.90
2019-04-25T15:10:57.382Z,56.20
2019-04-25T15:13:27.843Z,56.50
2019-04-25T15:15:58.434Z,56.60
2019-04-25T15:18:28.856Z,56.70
2019-04-25T15:20:59.218Z,56.90
2019-04-25T15:23:29.952Z,57.80
2019-04-25T15:26:00.469Z,57.50
2019-04-25T15:28:30.828Z,57.70
2019-04-25T15:31:01.253Z,58.40
2019-04-25T15:33:31.650Z,58.00
2019-04-25T15:36:17.412Z,58.30
2019-04-25T15:39:12.974Z,58.40
2019-04-25T15:42:01.410Z,58.20
2019-04-25T15:44:51.261Z,58.30
2019-04-25T15:47:26.448Z,58.30
2019-04-25T15:49:56.899Z,58.20
2019-04-25T15:52:27.320Z,58.20
2019-04-25T15:55:06.986Z,58.90
2019-04-25T15:57:29.881Z,58.20
2019-04-25T16:00:00.516Z,58.20
2019-04-25T16:02:31.050Z,58.20
2019-04-25T16:05:01.376Z,58.30
2019-04-25T16:07:31.858Z,58.30
2019-04-25T16:10:02.261Z,58.30
2019-04-25T16:12:33.021Z,58.30
2019-04-25T16:15:03.490Z,58.40
2019-04-25T16:17:34.793Z,58.50
2019-04-25T16:20:05.743Z,58.70
2019-04-25T16:22:36.620Z,58.70
2019-04-25T16:25:07.458Z,58.70
2019-04-25T16:27:37.908Z,58.80
2019-04-25T16:30:09.448Z,58.90
2019-04-25T16:32:39.817Z,58.90
2019-04-25T16:35:10.576Z,58.90
2019-04-25T16:37:41.331Z,59.00
2019-04-25T16:40:12.551Z,58.90
2019-04-25T16:42:43.385Z,58.90
2019-04-25T16:45:14.083Z,58.90
2019-04-25T16:47:44.585Z,58.90
2019-04-25T16:50:16.163Z,59.10
2019-04-25T16:52:46.512Z,59.10
2019-04-25T16:55:17.372Z,59.20
2019-04-25T16:57:48.065Z,59.30
2019-04-25T17:00:38.334Z,59.80
2019-04-25T17:03:09.032Z,60.00
2019-04-25T17:05:39.938Z,60.10
2019-04-25T17:08:10.426Z,60.50
2019-04-25T17:10:41.641Z,60.70
2019-04-25T17:13:12.399Z,60.80
2019-04-25T17:16:20.108Z,60.80
2019-04-25T17:18:55.145Z,61.10
2019-04-25T17:21:25.576Z,61.20
2019-04-25T17:23:56.484Z,61.30
2019-04-25T17:26:27.423Z,61.60
2019-04-25T17:29:00.287Z,61.70
2019-04-25T17:31:37.307Z,61.90
2019-04-25T17:34:26.749Z,62.00
2019-04-25T17:37:28.415Z,62.10
2019-04-25T17:40:01.736Z,62.30
2019-04-25T17:42:33.959Z,62.70
2019-04-25T17:45:07.427Z,62.90
2019-04-25T17:47:38.590Z,63.10
2019-04-25T17:50:09.126Z,63.60
2019-04-25T17:52:40.562Z,63.90
2019-04-25T17:55:11.204Z,64.00
2019-04-25T17:57:42.088Z,64.50
2019-04-25T18:00:20.966Z,64.60
2019-04-25T18:02:58.745Z,64.80
2019-04-25T18:05:24.145Z,65.10
2019-04-25T18:07:54.818Z,65.10
2019-04-25T18:10:25.670Z,65.30
2019-04-25T18:12:56.265Z,65.40
2019-04-25T18:15:32.985Z,65.50
2019-04-25T18:18:06.177Z,65.50
2019-04-25T18:20:38.861Z,65.50
2019-04-25T18:23:38.671Z,65.60
2019-04-25T18:26:24.792Z,65.60
2019-04-25T18:28:59.239Z,65.70
2019-04-25T18:31:29.580Z,65.70
2019-04-25T18:34:02.609Z,65.70
2019-04-25T18:36:40.463Z,65.70
2019-04-25T18:39:19.548Z,65.80
2019-04-25T18:42:11.051Z,66.00
2019-04-25T18:44:41.967Z,66.20
2019-04-25T18:47:12.462Z,66.50
2019-04-25T18:49:44.931Z,66.80
2019-04-25T18:52:34.502Z,67.20
2019-04-25T18:55:15.203Z,67.60
2019-04-25T18:57:51.496Z,68.00
2019-04-25T19:00:53.024Z,68.30
2019-04-25T19:03:51.441Z,68.60
2019-04-25T19:06:22.243Z,68.90
2019-04-25T19:08:53.557Z,69.30
2019-04-25T19:11:24.175Z,69.60
2019-04-25T19:13:54.895Z,69.80
2019-04-25T19:16:25.395Z,69.90
2019-04-25T19:18:55.914Z,70.10
2019-04-25T19:21:26.312Z,70.30
2019-04-25T19:23:56.745Z,70.60
2019-04-25T19:26:27.193Z,71.00
2019-04-25T19:28:57.671Z,71.20
2019-04-25T19:31:28.254Z,71.70
2019-04-25T19:33:58.629Z,72.10
2019-04-25T19:36:29.060Z,72.10
2019-04-25T19:38:59.573Z,72.60
2019-04-25T19:41:38.633Z,72.90
2019-04-25T19:44:12.429Z,73.30
2019-04-25T19:46:44.969Z,73.50
2019-04-25T19:49:16.446Z,74.00
2019-04-25T19:51:47.246Z,74.40
2019-04-25T19:54:19.437Z,74.70
2019-04-25T19:56:49.836Z,74.90
2019-04-25T19:59:20.240Z,75.30
2019-04-25T20:01:52.765Z,75.60
2019-04-25T20:04:43.328Z,76.00
2019-04-25T20:07:22.825Z,76.30
2019-04-25T20:10:12.211Z,76.50
2019-04-25T20:12:45.702Z,76.70
2019-04-25T20:15:17.348Z,77.20
2019-04-25T20:17:47.780Z,77.40
2019-04-25T20:20:18.796Z,77.70
2019-04-25T20:22:50.206Z,77.70
2019-04-25T20:25:20.939Z,77.90
2019-04-25T20:27:51.361Z,78.30
2019-04-25T20:30:23.518Z,78.80
2019-04-25T20:32:53.946Z,79.00
2019-04-25T20:35:24.333Z,79.50
2019-04-25T20:37:55.634Z,79.80
2019-04-25T20:40:26.243Z,80.10
2019-04-25T20:42:56.999Z,80.50
2019-04-25T20:45:27.359Z,81.30
2019-04-25T20:48:01.686Z,81.40
2019-04-25T20:50:31.989Z,81.60
2019-04-25T20:53:02.761Z,81.70
2019-04-25T20:55:33.119Z,82.00
2019-04-25T20:58:03.615Z,82.40
2019-04-25T21:00:40.110Z,82.70
2019-04-25T21:03:10.705Z,82.80
2019-04-25T21:05:41.433Z,83.30
2019-04-25T21:08:12.033Z,83.70
2019-04-25T21:10:42.601Z,84.20
2019-04-25T21:13:17.162Z,84.30
2019-04-25T21:16:15.361Z,84.90
2019-04-25T21:18:51.645Z,85.30
2019-04-25T21:21:21.953Z,85.90
2019-04-25T21:23:53.031Z,86.20
2019-04-25T21:26:23.589Z,86.70
2019-04-25T21:28:54.343Z,86.80
2019-04-25T21:31:26.232Z,87.20
2019-04-25T21:33:57.330Z,87.70
2019-04-25T21:36:28.677Z,88.20
2019-04-25T21:38:59.832Z,89.20
2019-04-25T21:42:05.152Z,88.80
2019-04-25T21:44:36.039Z,89.60
2019-04-25T21:47:06.699Z,89.50
2019-04-25T21:49:37.506Z,90.00
2019-04-25T21:52:08.207Z,90.00
2019-04-25T21:54:39.089Z,90.10
2019-04-25T21:57:10.973Z,90.70
2019-04-25T21:59:41.783Z,90.50
2019-04-25T22:02:12.673Z,90.70
2019-04-25T22:04:43.390Z,90.80
2019-04-25T22:07:15.234Z,90.90
2019-04-25T22:09:45.957Z,91.20
2019-04-25T22:12:17.722Z,91.30
2019-04-25T22:14:48.107Z,91.40
2019-04-25T22:17:18.506Z,91.60
2019-04-25T22:19:49.927Z,91.90
2019-04-25T22:22:22.163Z,92.20
2019-04-25T22:24:54.317Z,92.50
2019-04-25T22:27:29.901Z,92.50
2019-04-25T22:30:00.402Z,92.70
2019-04-25T22:32:52.082Z,92.90
2019-04-25T22:35:26.359Z,93.10
2019-04-25T22:37:57.627Z,93.40
2019-04-25T22:40:28.891Z,93.50
2019-04-25T22:43:00.425Z,93.60
2019-04-25T22:45:31.301Z,93.80
2019-04-25T22:48:02.596Z,93.80
2019-04-25T22:50:33.353Z,93.90
2019-04-25T22:53:04.261Z,94.00
2019-04-25T22:55:35.105Z,94.20
2019-04-25T22:58:05.780Z,94.30
2019-04-25T23:00:38.276Z,94.40
2019-04-25T23:03:16.897Z,94.70
2019-04-25T23:05:51.642Z,94.80
2019-04-25T23:08:22.443Z,95.00
2019-04-25T23:10:52.832Z,95.30
2019-04-25T23:13:23.200Z,95.30
2019-04-25T23:15:53.648Z,95.30
2019-04-25T23:18:24.932Z,95.40
2019-04-25T23:20:55.333Z,95.60
2019-04-25T23:23:25.919Z,95.70
2019-04-25T23:26:18.112Z,95.90
2019-04-25T23:28:48.954Z,96.20
2019-04-25T23:31:23.109Z,96.20
2019-04-25T23:33:53.558Z,96.30
2019-04-25T23:36:23.956Z,96.50
2019-04-25T23:38:54.288Z,96.70
2019-04-25T23:41:25.558Z,96.80
2019-04-25T23:43:55.933Z,97.00
2019-04-25T23:46:26.912Z,97.10
2019-04-25T23:48:57.389Z,97.20
2019-04-25T23:51:27.871Z,97.40
2019-04-25T23:53:58.665Z,97.70
2019-04-25T23:56:29.074Z,97.80
2019-04-25T23:58:59.686Z,97.80
